Terminal Aerodrome Forecast
Issued by NWS

Current Version | Previous Version | Graphics & Text | Print | Product List | Glossary On
Versions: 1 2 3 4 5 6 7 8 9 10 11 12 13 14 15 16 17 18 19 20 21 22 23 24
000
FTUS41 KILN 010500 RRA
TAFLCK
TAF
KLCK 010541Z 0106/0206 20003KT P6SM BKN010
     FM010900 19003KT 4SM BR BKN008 OVC015
     FM011400 21007KT P6SM BKN012 OVC025
     FM011600 22009KT P6SM BKN025
     FM011800 22014G22KT P6SM SCT035
     FM020200 21006KT P6SM VCSH BKN030=

USA.gov is the U.S. government's official web portal to all federal, state and local government web resources and services.